Time;durP1;ratioP1;P1;durP2;ratioP2;P2;SDS_P1;SDS_P2;PMS_P1;PMS_P2;Temp;Humidity;BMP_temperature;BMP_pressure;BME280_temperature;BME280_humidity;BME280_pressure;Samples;Min_cycle;Max_cycle;Signal;HPM_P1;HPM_P2
2021/07/20 00:00:26;;;;;;;;;;;;;;;24.07;62.56;99473.41;2066230;28;19983;-70
2021/07/20 00:01:27;;;;;;;;;;;;;;;24.07;62.72;99465.16;2065696;28;19929;-69
2021/07/20 00:02:30;;;;;;;;;;;;;;;24.08;62.59;99466.88;2070104;28;19924;-70
2021/07/20 00:03:31;;;;;;;;;;;;;;;24.09;62.63;99462.22;2066975;28;19921;-70
2021/07/20 00:04:31;;;;;;;;;;;;;;;24.08;62.64;99461.38;2066494;28;20022;-70
2021/07/20 00:05:32;;;;;;;;;;;;;;;24.08;62.62;99463.25;2065315;28;19925;-70
2021/07/20 00:06:32;;;;;;;;;;;;;;;24.09;62.66;99462.22;2065859;28;20083;-70
2021/07/20 00:07:33;;;;;;;;;;;;;;;24.07;62.60;99462.41;2066746;28;19918;-70
2021/07/20 00:08:33;;;;;;;;;;;;;;;24.07;62.73;99464.31;2064324;28;20684;-70
2021/07/20 00:09:34;;;;;;;;;;;;;;;24.07;62.66;99459.66;2062477;28;19963;-69
2021/07/20 00:10:46;;;;;;;;;;;;;;;24.07;62.72;99458.78;2064032;28;19963;-70
2021/07/20 00:11:46;;;;;;;;;;;;;;;24.08;62.63;99461.38;2064811;28;19925;-69
2021/07/20 00:12:47;;;;;;;;;;;;;;;24.07;62.64;99461.56;2068862;28;19917;-69
2021/07/20 00:13:47;;;;;;;;;;;;;;;24.08;62.67;99464.13;2067325;28;20370;-70
2021/07/20 00:14:47;;;;;;;;;;;;;;;24.08;62.67;99457.75;2066353;28;20090;-69
2021/07/20 00:15:48;;;;;;;;;;;;;;;24.08;62.58;99460.50;2068202;28;20769;-69
2021/07/20 00:16:48;;;;;;;;;;;;;;;24.08;62.54;99454.97;2067140;28;20726;-69
2021/07/20 00:17:50;;;;;;;;;;;;;;;24.08;62.57;99460.50;2067576;28;19928;-69
2021/07/20 00:18:50;;;;;;;;;;;;;;;24.09;62.65;99456.72;2067706;28;19924;-70
2021/07/20 00:19:50;;;;;;;;;;;;;;;24.07;62.58;99456.03;2067410;28;19925;-70
2021/07/20 00:20:51;;;;;;;;;;;;;;;24.07;62.63;99447.78;2064878;28;19928;-70
2021/07/20 00:21:52;;;;;;;;;;;;;;;24.08;62.63;99454.97;2067189;28;19968;-70
2021/07/20 00:22:52;;;;;;;;;;;;;;;24.08;62.64;99449.47;2065553;28;19924;-69
2021/07/20 00:23:52;;;;;;;;;;;;;;;24.08;62.71;99454.97;2068684;28;19921;-70
2021/07/20 00:24:53;;;;;;;;;;;;;;;24.07;62.66;99448.63;2067629;28;19967;-69
2021/07/20 00:25:53;;;;;;;;;;;;;;;24.07;62.59;99454.13;2063939;28;19913;-70
2021/07/20 00:26:53;;;;;;;;;;;;;;;24.07;62.66;99454.13;2067461;28;19972;-69
2021/07/20 00:27:54;;;;;;;;;;;;;;;24.07;62.65;99447.78;2067336;28;19940;-69
2021/07/20 00:28:54;;;;;;;;;;;;;;;24.08;62.63;99450.34;2062564;28;19983;-70
2021/07/20 00:29:54;;;;;;;;;;;;;;;24.08;62.52;99454.97;2067030;28;19967;-70
2021/07/20 00:30:54;;;;;;;;;;;;;;;24.06;62.70;99446.09;2066272;28;20450;-70
2021/07/20 00:31:55;;;;;;;;;;;;;;;24.08;62.58;99449.47;2067290;28;20681;-69
2021/07/20 00:32:55;;;;;;;;;;;;;;;24.07;62.65;99447.78;2065987;28;19963;-69
2021/07/20 00:33:56;;;;;;;;;;;;;;;24.07;62.61;99453.28;2067521;28;20190;-69
2021/07/20 00:34:56;;;;;;;;;;;;;;;24.08;62.52;99449.47;2066722;28;19920;-69
2021/07/20 00:35:56;;;;;;;;;;;;;;;24.07;62.66;99456.03;2072035;28;19924;-69
2021/07/20 00:36:56;;;;;;;;;;;;;;;24.06;62.58;99455.19;2067929;28;19925;-69
2021/07/20 00:37:57;;;;;;;;;;;;;;;24.07;62.65;99453.28;2063967;28;19979;-70
2021/07/20 00:38:57;;;;;;;;;;;;;;;24.06;62.66;99446.09;2067040;28;20619;-70
2021/07/20 00:39:57;;;;;;;;;;;;;;;24.06;62.75;99451.59;2069474;28;20379;-70
2021/07/20 00:40:58;;;;;;;;;;;;;;;24.07;62.72;99447.78;2064080;28;19925;-70
2021/07/20 00:41:58;;;;;;;;;;;;;;;24.06;62.76;99449.69;2067361;28;20003;-70
2021/07/20 00:42:59;;;;;;;;;;;;;;;24.06;62.58;99446.09;2066642;28;20389;-70
2021/07/20 00:44:00;;;;;;;;;;;;;;;24.07;62.67;99447.78;2067265;28;19964;-70
2021/07/20 00:45:00;;;;;;;;;;;;;;;24.05;62.67;99445.22;2067571;28;19925;-70
2021/07/20 00:46:01;;;;;;;;;;;;;;;24.06;62.73;99446.94;2067919;28;19925;-70
2021/07/20 00:47:01;;;;;;;;;;;;;;;24.06;62.59;99448.84;2067875;28;19921;-70
2021/07/20 00:48:02;;;;;;;;;;;;;;;24.05;62.58;99445.22;2061983;28;20419;-70
2021/07/20 00:49:02;;;;;;;;;;;;;;;24.06;62.67;99446.09;2065465;28;20358;-70
2021/07/20 00:50:07;;;;;;;;;;;;;;;24.05;62.74;99453.47;2062995;28;20362;-70
2021/07/20 00:51:08;;;;;;;;;;;;;;;24.05;62.71;99441.63;2068548;28;20242;-70
2021/07/20 00:52:08;;;;;;;;;;;;;;;24.06;62.69;99455.19;2064500;28;19963;-70
2021/07/20 00:53:09;;;;;;;;;;;;;;;24.06;62.70;99451.59;2067840;28;19925;-70
2021/07/20 00:54:09;;;;;;;;;;;;;;;24.06;62.66;99446.09;2065844;28;20419;-68
2021/07/20 00:55:10;;;;;;;;;;;;;;;24.05;62.67;99450.72;2066504;28;19917;-70
2021/07/20 00:56:11;;;;;;;;;;;;;;;24.05;62.66;99447.97;2068087;28;19914;-70
2021/07/20 00:57:11;;;;;;;;;;;;;;;24.06;62.61;99451.59;2067883;28;19917;-69
2021/07/20 00:58:12;;;;;;;;;;;;;;;24.07;62.66;99456.03;2067884;28;20458;-70
2021/07/20 00:59:13;;;;;;;;;;;;;;;24.06;62.77;99457.09;2073498;28;19928;-70
2021/07/20 01:00:16;;;;;;;;;;;;;;;24.06;62.56;99457.09;2064695;28;19928;-70
2021/07/20 01:01:16;;;;;;;;;;;;;;;24.05;62.68;99450.72;2062569;28;19948;-69
2021/07/20 01:02:17;;;;;;;;;;;;;;;24.04;62.77;99450.94;2067040;28;19960;-70
2021/07/20 01:03:17;;;;;;;;;;;;;;;24.05;62.73;99449.88;2069601;28;19919;-70
2021/07/20 01:04:17;;;;;;;;;;;;;;;24.04;62.76;99451.78;2064700;28;19928;-69
2021/07/20 01:05:20;;;;;;;;;;;;;;;24.05;62.75;99444.38;2064839;28;19924;-70
2021/07/20 01:06:22;;;;;;;;;;;;;;;24.05;62.76;99447.13;2073000;28;19921;-70
2021/07/20 01:07:24;;;;;;;;;;;;;;;24.05;62.76;99450.72;2065657;28;19921;-71
2021/07/20 01:08:25;;;;;;;;;;;;;;;24.04;62.68;99446.28;2068120;28;19956;-70
2021/07/20 01:09:26;;;;;;;;;;;;;;;24.04;62.86;99445.44;2066232;28;19929;-70
2021/07/20 01:10:27;;;;;;;;;;;;;;;24.05;62.77;99444.38;2067748;28;19932;-70
2021/07/20 01:11:29;;;;;;;;;;;;;;;24.05;62.69;99444.38;2067576;28;19956;-70
2021/07/20 01:12:33;;;;;;;;;;;;;;;24.05;62.68;99449.88;2066831;28;19917;-70
2021/07/20 01:13:36;;;;;;;;;;;;;;;24.04;62.74;99448.19;2068321;28;20418;-70
2021/07/20 01:14:36;;;;;;;;;;;;;;;24.05;62.83;99438.88;2068271;28;19928;-70
2021/07/20 01:15:37;;;;;;;;;;;;;;;24.04;62.71;99439.94;2068655;28;19971;-70
2021/07/20 01:16:39;;;;;;;;;;;;;;;24.04;62.69;99443.53;2069932;28;19921;-69
2021/07/20 01:17:40;;;;;;;;;;;;;;;24.03;62.76;99443.72;2069338;28;20000;-70
2021/07/20 01:18:41;;;;;;;;;;;;;;;24.03;62.69;99452.81;2068756;28;19974;-70
2021/07/20 01:19:49;;;;;;;;;;;;;;;24.03;62.77;99446.47;2069138;28;19963;-69
2021/07/20 01:20:50;;;;;;;;;;;;;;;24.02;62.78;99451.13;2068619;28;20486;-70
2021/07/20 01:21:52;;;;;;;;;;;;;;;24.03;62.87;99449.22;2068890;28;19913;-70
2021/07/20 01:22:58;;;;;;;;;;;;;;;24.04;62.76;99453.69;2069849;28;19960;-70
2021/07/20 01:23:59;;;;;;;;;;;;;;;24.04;62.76;99450.94;2078035;28;19919;-70
2021/07/20 01:25:02;;;;;;;;;;;;;;;24.03;62.64;99450.06;2076146;28;19962;-70
2021/07/20 01:26:02;;;;;;;;;;;;;;;24.03;62.82;99452.81;2069204;28;19921;-70
2021/07/20 01:27:03;;;;;;;;;;;;;;;24.03;62.61;99446.47;2065886;28;19921;-70
2021/07/20 01:28:05;;;;;;;;;;;;;;;24.03;62.80;99451.97;2068366;28;19956;-70
2021/07/20 01:29:07;;;;;;;;;;;;;;;24.03;62.70;99446.47;2069249;28;20968;-70
2021/07/20 01:30:07;;;;;;;;;;;;;;;24.02;62.73;99448.38;2067973;28;19960;-70
2021/07/20 01:31:27;;;;;;;;;;;;;;;24.03;62.70;99451.97;2063849;28;19914;-70
2021/07/20 01:32:27;;;;;;;;;;;;;;;24.03;62.71;99446.47;2067272;28;20690;-70
2021/07/20 01:33:30;;;;;;;;;;;;;;;24.02;62.71;99450.28;2069008;28;19956;-70
2021/07/20 01:34:30;;;;;;;;;;;;;;;24.02;62.72;99451.13;2069099;28;19906;-70
2021/07/20 01:35:32;;;;;;;;;;;;;;;24.03;62.53;99446.47;2068188;28;19924;-70
2021/07/20 01:36:33;;;;;;;;;;;;;;;24.02;62.56;99448.38;2070089;28;19920;-70
2021/07/20 01:37:33;;;;;;;;;;;;;;;24.03;62.71;99451.97;2067233;28;19917;-70
2021/07/20 01:38:35;;;;;;;;;;;;;;;24.03;62.69;99451.97;2069130;28;19917;-71
2021/07/20 01:39:36;;;;;;;;;;;;;;;24.02;62.72;99453.88;2068274;28;19917;-70
2021/07/20 01:40:37;;;;;;;;;;;;;;;24.02;62.66;99453.03;2064946;28;20332;-70
2021/07/20 01:41:39;;;;;;;;;;;;;;;24.01;62.74;99454.06;2069017;28;20809;-70
2021/07/20 01:42:44;;;;;;;;;;;;;;;24.01;62.72;99454.94;2066013;28;19917;-70
2021/07/20 01:43:47;;;;;;;;;;;;;;;24.02;62.72;99444.78;2068215;28;19980;-70
2021/07/20 01:44:47;;;;;;;;;;;;;;;24.01;62.65;99443.94;2063528;28;19925;-70
2021/07/20 01:45:48;;;;;;;;;;;;;;;24.03;62.69;99446.47;2064529;28;20020;-70
2021/07/20 01:46:50;;;;;;;;;;;;;;;24.02;62.73;99439.28;2066438;28;19921;-70
2021/07/20 01:47:51;;;;;;;;;;;;;;;24.01;62.72;99443.06;2070702;28;20383;-70
2021/07/20 01:48:53;;;;;;;;;;;;;;;24.02;62.65;99445.63;2065189;28;20307;-70
2021/07/20 01:49:56;;;;;;;;;;;;;;;24.03;62.73;99443.72;2068799;28;19974;-68
2021/07/20 01:50:57;;;;;;;;;;;;;;;24.03;62.64;99449.22;2058850;28;19925;-69
2021/07/20 01:51:57;;;;;;;;;;;;;;;24.01;62.73;99443.06;2068852;28;20011;-69
2021/07/20 01:52:58;;;;;;;;;;;;;;;24.02;62.77;99447.53;2068708;28;19913;-69
2021/07/20 01:53:59;;;;;;;;;;;;;;;24.02;62.74;99450.28;2068857;28;19917;-69
2021/07/20 01:54:59;;;;;;;;;;;;;;;24.02;62.66;99442.03;2067905;28;19921;-69
2021/07/20 01:56:00;;;;;;;;;;;;;;;24.02;62.56;99447.53;2066198;28;19918;-69
2021/07/20 01:57:01;;;;;;;;;;;;;;;24.02;62.73;99440.13;2069733;28;20715;-70
2021/07/20 01:58:01;;;;;;;;;;;;;;;24.00;62.74;99444.97;2076054;28;19964;-69
2021/07/20 01:59:02;;;;;;;;;;;;;;;24.01;62.78;99446.69;2068672;28;20020;-69
2021/07/20 02:00:05;;;;;;;;;;;;;;;24.02;62.82;99439.28;2070177;28;19957;-70
2021/07/20 02:01:09;;;;;;;;;;;;;;;24.01;62.79;99437.56;2067859;28;19976;-70
2021/07/20 02:02:20;;;;;;;;;;;;;;;24.02;62.77;99442.03;2065941;28;19921;-70
2021/07/20 02:03:31;;;;;;;;;;;;;;;24.02;62.70;99444.78;2072088;28;20013;-70
2021/07/20 02:09:23;;;;;;;;;;;;;;;24.01;62.78;99434.78;2066835;28;20012;-70
2021/07/20 02:10:24;;;;;;;;;;;;;;;24.00;62.81;99446.88;2068122;28;19921;-70
2021/07/20 02:11:30;;;;;;;;;;;;;;;24.00;62.83;99438.63;2067839;28;19920;-70
2021/07/20 02:12:33;;;;;;;;;;;;;;;24.00;62.65;99441.38;2067775;28;19921;-71
2021/07/20 02:13:41;;;;;;;;;;;;;;;23.99;62.79;99434.16;2069539;28;19999;-70
2021/07/20 02:14:43;;;;;;;;;;;;;;;24.00;62.71;99435.88;2070918;28;20021;-70
2021/07/20 02:15:46;;;;;;;;;;;;;;;23.99;62.75;99434.16;2066976;28;20726;-71
2021/07/20 02:16:48;;;;;;;;;;;;;;;24.00;62.81;99438.63;2062355;28;19913;-70
2021/07/20 02:17:50;;;;;;;;;;;;;;;24.00;62.76;99430.34;2067569;28;19951;-70
2021/07/20 02:18:52;;;;;;;;;;;;;;;24.00;62.72;99430.34;2068744;28;20229;-70
2021/07/20 02:19:59;;;;;;;;;;;;;;;24.00;62.73;99435.88;2075060;28;20009;-70
2021/07/20 02:21:05;;;;;;;;;;;;;;;23.99;62.71;99428.66;2066362;28;20384;-70
2021/07/20 02:22:06;;;;;;;;;;;;;;;24.00;62.79;99435.88;2068776;28;20151;-70
2021/07/20 02:23:07;;;;;;;;;;;;;;;24.00;62.82;99435.88;2067948;28;19964;-70
2021/07/20 02:24:08;;;;;;;;;;;;;;;24.00;62.67;99430.34;2069131;28;20417;-70
2021/07/20 02:25:10;;;;;;;;;;;;;;;24.00;62.74;99441.38;2065436;28;19917;-70
2021/07/20 02:26:10;;;;;;;;;;;;;;;24.01;62.80;99437.56;2062953;28;19917;-70
2021/07/20 02:27:12;;;;;;;;;;;;;;;24.00;62.79;99430.34;2068655;28;20692;-70
2021/07/20 02:28:12;;;;;;;;;;;;;;;23.99;63.02;99429.50;2068153;28;19920;-70
2021/07/20 02:29:13;;;;;;;;;;;;;;;24.00;62.81;99427.59;2075882;28;20658;-69
2021/07/20 02:30:14;;;;;;;;;;;;;;;23.99;62.80;99428.66;2067296;28;19917;-69
2021/07/20 02:31:16;;;;;;;;;;;;;;;24.00;62.82;99430.34;2068930;28;20281;-69
2021/07/20 02:32:17;;;;;;;;;;;;;;;23.99;62.81;99429.50;2068365;28;19959;-69
2021/07/20 02:33:20;;;;;;;;;;;;;;;23.99;62.81;99429.50;2066896;28;20139;-69
2021/07/20 02:34:21;;;;;;;;;;;;;;;23.99;62.84;99434.16;2066849;28;20355;-69
2021/07/20 02:35:26;;;;;;;;;;;;;;;23.99;62.81;99425.91;2066535;28;19928;-69
2021/07/20 02:36:26;;;;;;;;;;;;;;;23.99;62.80;99429.50;2067791;28;19925;-69
2021/07/20 02:37:28;;;;;;;;;;;;;;;23.99;62.83;99431.41;2068351;28;20019;-69
2021/07/20 02:38:30;;;;;;;;;;;;;;;23.99;62.74;99434.16;2069144;28;19936;-69
2021/07/20 02:39:31;;;;;;;;;;;;;;;24.00;62.76;99435.88;2068922;28;20086;-69
2021/07/20 02:40:32;;;;;;;;;;;;;;;23.99;62.79;99432.25;2066025;28;19925;-69
2021/07/20 02:41:33;;;;;;;;;;;;;;;23.98;62.81;99426.94;2067684;28;19995;-68
2021/07/20 02:42:35;;;;;;;;;;;;;;;23.99;62.77;99435.00;2068777;28;19917;-69
2021/07/20 02:43:37;;;;;;;;;;;;;;;23.99;62.91;99434.16;2067661;28;20012;-69
2021/07/20 02:44:38;;;;;;;;;;;;;;;23.99;62.92;99434.16;2066065;28;20289;-69
2021/07/20 02:45:39;;;;;;;;;;;;;;;23.98;62.81;99427.78;2065256;28;19919;-70
2021/07/20 02:46:41;;;;;;;;;;;;;;;23.99;62.88;99434.16;2068358;28;20382;-69
2021/07/20 02:47:42;;;;;;;;;;;;;;;23.99;62.76;99429.50;2068212;28;19925;-69
2021/07/20 02:48:42;;;;;;;;;;;;;;;23.99;62.77;99431.41;2066910;28;20380;-69
2021/07/20 02:49:44;;;;;;;;;;;;;;;23.98;62.87;99426.94;2064103;28;20640;-69
2021/07/20 02:50:44;;;;;;;;;;;;;;;23.99;62.85;99425.91;2067481;28;19928;-69
2021/07/20 02:51:46;;;;;;;;;;;;;;;23.98;62.79;99424.19;2068807;28;19925;-69
2021/07/20 02:52:47;;;;;;;;;;;;;;;23.98;62.81;99427.78;2070109;28;20020;-69
2021/07/20 02:53:51;;;;;;;;;;;;;;;23.98;62.77;99429.69;2066635;28;19925;-69
2021/07/20 02:54:52;;;;;;;;;;;;;;;23.98;62.90;99425.03;2060471;28;19924;-69
2021/07/20 02:55:53;;;;;;;;;;;;;;;23.98;62.74;99426.94;2067515;28;19927;-69
2021/07/20 02:56:54;;;;;;;;;;;;;;;23.99;62.76;99423.16;2069801;28;19921;-69
2021/07/20 02:57:54;;;;;;;;;;;;;;;23.99;62.84;99428.66;2066712;28;19925;-69
2021/07/20 02:58:59;;;;;;;;;;;;;;;23.98;62.83;99432.44;2064772;28;19928;-69
2021/07/20 03:00:00;;;;;;;;;;;;;;;23.98;62.85;99424.19;2065773;28;19922;-69
2021/07/20 03:01:01;;;;;;;;;;;;;;;23.99;62.87;99428.66;2066730;28;19940;-70
2021/07/20 03:02:02;;;;;;;;;;;;;;;23.98;62.79;99419.53;2068522;28;19928;-70
2021/07/20 03:03:02;;;;;;;;;;;;;;;23.99;62.91;99420.41;2067669;28;19944;-69
2021/07/20 03:04:03;;;;;;;;;;;;;;;23.99;62.90;99428.66;2067824;28;20028;-70
2021/07/20 03:05:06;;;;;;;;;;;;;;;23.98;62.70;99424.19;2068742;28;20436;-70
2021/07/20 03:06:09;;;;;;;;;;;;;;;23.98;62.82;99422.28;2068149;28;19925;-69
2021/07/20 03:07:11;;;;;;;;;;;;;;;23.98;62.89;99426.94;2070956;28;20103;-69
2021/07/20 03:08:12;;;;;;;;;;;;;;;23.98;62.63;99422.28;2064222;28;19928;-69
2021/07/20 03:09:13;;;;;;;;;;;;;;;23.98;62.83;99426.94;2064790;28;19913;-69
2021/07/20 03:10:15;;;;;;;;;;;;;;;23.98;62.81;99424.19;2069060;28;20004;-69
2021/07/20 03:11:16;;;;;;;;;;;;;;;23.97;62.85;99426.09;2067721;28;19916;-69
2021/07/20 03:12:17;;;;;;;;;;;;;;;23.98;62.83;99424.19;2066458;28;20384;-69
2021/07/20 03:13:18;;;;;;;;;;;;;;;23.96;62.72;99425.25;2070191;28;19920;-69
2021/07/20 03:14:20;;;;;;;;;;;;;;;23.98;62.85;99424.19;2068132;28;19921;-69
2021/07/20 03:15:21;;;;;;;;;;;;;;;23.97;62.77;99420.59;2075822;28;20283;-69
2021/07/20 03:16:22;;;;;;;;;;;;;;;23.96;62.83;99422.50;2076143;28;19920;-69
2021/07/20 03:17:24;;;;;;;;;;;;;;;23.96;62.77;99425.25;2064687;28;19917;-69
2021/07/20 03:18:28;;;;;;;;;;;;;;;23.97;62.84;99423.34;2067741;28;19928;-70
2021/07/20 03:19:30;;;;;;;;;;;;;;;23.96;62.85;99419.75;2068203;28;19987;-70
2021/07/20 03:20:31;;;;;;;;;;;;;;;23.96;62.79;99417.00;2068096;28;19935;-70
2021/07/20 03:21:33;;;;;;;;;;;;;;;23.98;62.80;99421.44;2068592;28;19921;-70
2021/07/20 03:22:34;;;;;;;;;;;;;;;23.96;62.85;99418.91;2068163;28;20649;-70
2021/07/20 03:23:35;;;;;;;;;;;;;;;23.98;62.88;99421.44;2068206;28;20292;-70
2021/07/20 03:24:37;;;;;;;;;;;;;;;23.98;62.81;99413.19;2066677;28;19925;-70
2021/07/20 03:25:38;;;;;;;;;;;;;;;23.98;62.83;99415.94;2067136;28;19921;-70
2021/07/20 03:26:39;;;;;;;;;;;;;;;23.98;62.88;99415.94;2068249;28;19927;-70
2021/07/20 03:27:41;;;;;;;;;;;;;;;23.95;62.86;99418.03;2068551;28;19917;-69
2021/07/20 03:28:42;;;;;;;;;;;;;;;23.96;62.83;99419.75;2073867;28;20648;-69
2021/07/20 03:29:43;;;;;;;;;;;;;;;23.96;62.85;99419.75;2068841;28;19917;-69
2021/07/20 03:30:44;;;;;;;;;;;;;;;23.96;62.87;99414.25;2065271;28;19933;-69
2021/07/20 03:31:45;;;;;;;;;;;;;;;23.96;62.89;99413.41;2066298;28;19928;-69
2021/07/20 03:32:47;;;;;;;;;;;;;;;23.96;62.83;99418.91;2075069;28;21164;-69
2021/07/20 03:33:48;;;;;;;;;;;;;;;23.95;62.85;99418.03;2074317;28;19928;-69
2021/07/20 03:34:48;;;;;;;;;;;;;;;23.96;62.83;99413.41;2065790;28;19921;-69
2021/07/20 03:35:49;;;;;;;;;;;;;;;23.96;62.83;99414.25;2068887;28;19928;-69
2021/07/20 03:36:50;;;;;;;;;;;;;;;23.96;62.90;99418.91;2066570;28;20147;-69
2021/07/20 03:37:51;;;;;;;;;;;;;;;23.96;62.82;99413.41;2066127;28;19928;-69
2021/07/20 03:38:51;;;;;;;;;;;;;;;23.96;62.86;99414.25;2063614;28;19921;-69
2021/07/20 03:39:53;;;;;;;;;;;;;;;23.97;62.89;99420.59;2066774;28;19925;-69
2021/07/20 03:40:54;;;;;;;;;;;;;;;23.95;62.77;99418.03;2068363;28;19970;-69
2021/07/20 03:41:54;;;;;;;;;;;;;;;23.96;62.75;99414.25;2066772;28;19968;-69
2021/07/20 03:42:55;;;;;;;;;;;;;;;23.96;62.83;99417.00;2069064;28;19927;-69
2021/07/20 03:43:56;;;;;;;;;;;;;;;23.96;62.75;99419.75;2064014;28;20368;-69
2021/07/20 03:44:56;;;;;;;;;;;;;;;23.95;62.72;99418.03;2065805;28;20081;-69
2021/07/20 03:45:59;;;;;;;;;;;;;;;23.95;62.92;99412.53;2069514;28;20407;-69
2021/07/20 03:46:59;;;;;;;;;;;;;;;23.95;62.84;99423.53;2067389;28;20016;-69
2021/07/20 03:48:00;;;;;;;;;;;;;;;23.96;62.79;99427.16;2066585;28;19921;-69
2021/07/20 03:49:00;;;;;;;;;;;;;;;23.96;62.82;99418.91;2066743;28;20302;-69
2021/07/20 03:50:03;;;;;;;;;;;;;;;23.95;62.91;99423.53;2066184;28;20386;-69
2021/07/20 03:51:04;;;;;;;;;;;;;;;23.95;62.86;99429.03;2066646;28;21885;-69
2021/07/20 03:52:05;;;;;;;;;;;;;;;23.96;62.82;99425.25;2064544;28;20371;-69
2021/07/20 03:53:05;;;;;;;;;;;;;;;23.96;62.92;99427.16;2064014;28;19944;-69
2021/07/20 03:54:07;;;;;;;;;;;;;;;23.96;62.82;99427.16;2068450;28;20444;-69
2021/07/20 03:55:08;;;;;;;;;;;;;;;23.94;62.77;99427.34;2067322;28;19928;-69
2021/07/20 03:56:08;;;;;;;;;;;;;;;23.95;62.72;99429.03;2067227;28;19921;-69
2021/07/20 03:57:09;;;;;;;;;;;;;;;23.95;62.75;99431.78;2067960;28;20284;-69
2021/07/20 03:58:12;;;;;;;;;;;;;;;23.96;62.90;99429.91;2067147;28;19978;-69
2021/07/20 03:59:12;;;;;;;;;;;;;;;23.95;62.81;99434.53;2068148;28;19960;-69
2021/07/20 04:00:13;;;;;;;;;;;;;;;23.95;62.85;99434.53;2060654;28;19932;-69
2021/07/20 04:01:14;;;;;;;;;;;;;;;23.95;62.95;99429.03;2053579;28;19918;-70
2021/07/20 04:02:16;;;;;;;;;;;;;;;23.95;62.97;99434.53;2070081;28;20042;-69
2021/07/20 04:03:26;;;;;;;;;;;;;;;23.96;62.83;99436.25;2062693;28;19918;-69
2021/07/20 04:04:29;;;;;;;;;;;;;;;23.94;62.78;99427.34;2067665;28;19932;-70
2021/07/20 04:05:30;;;;;;;;;;;;;;;23.95;62.82;99431.78;2065981;28;19924;-70
2021/07/20 04:06:32;;;;;;;;;;;;;;;23.95;62.92;99433.69;2067231;28;19914;-69
2021/07/20 04:07:33;;;;;;;;;;;;;;;23.94;62.81;99435.59;2065877;28;19921;-70
2021/07/20 04:08:36;;;;;;;;;;;;;;;23.96;62.82;99440.94;2062662;28;19914;-70
2021/07/20 04:09:38;;;;;;;;;;;;;;;23.94;63.02;99427.34;2067802;28;19964;-70
2021/07/20 04:10:39;;;;;;;;;;;;;;;23.94;62.89;99435.59;2067848;28;20637;-70
2021/07/20 04:11:41;;;;;;;;;;;;;;;23.95;62.80;99436.44;2065642;28;20430;-70
2021/07/20 04:12:42;;;;;;;;;;;;;;;23.94;62.85;99432.84;2068431;28;19927;-70
2021/07/20 04:13:43;;;;;;;;;;;;;;;23.95;62.93;99433.69;2066541;28;19914;-70
2021/07/20 04:14:44;;;;;;;;;;;;;;;23.95;62.85;99433.69;2066859;28;19932;-70
2021/07/20 04:15:52;;;;;;;;;;;;;;;23.95;62.94;99428.19;2066563;28;20454;-70
2021/07/20 04:16:52;;;;;;;;;;;;;;;23.94;62.87;99427.34;2066795;28;19917;-70
2021/07/20 04:17:53;;;;;;;;;;;;;;;23.93;62.86;99425.66;2068132;28;19967;-69
2021/07/20 04:18:54;;;;;;;;;;;;;;;23.94;62.88;99432.84;2063143;28;19978;-69
2021/07/20 04:19:54;;;;;;;;;;;;;;;23.94;62.91;99432.84;2066562;28;19925;-69
2021/07/20 04:20:55;;;;;;;;;;;;;;;23.94;62.96;99432.00;2067008;28;20392;-69
2021/07/20 04:21:56;;;;;;;;;;;;;;;23.95;62.89;99429.03;2067534;28;19924;-70
2021/07/20 04:22:56;;;;;;;;;;;;;;;23.95;62.78;99433.69;2065069;28;19955;-70
2021/07/20 04:23:58;;;;;;;;;;;;;;;23.94;62.93;99438.34;2066746;28;20363;-70
2021/07/20 04:24:58;;;;;;;;;;;;;;;23.94;62.81;99432.84;2065860;28;19929;-70
2021/07/20 04:25:59;;;;;;;;;;;;;;;23.95;62.78;99428.19;2068560;28;20034;-70
2021/07/20 04:27:01;;;;;;;;;;;;;;;23.94;62.87;99424.59;2067072;28;19921;-70
2021/07/20 04:28:02;;;;;;;;;;;;;;;23.95;62.90;99433.69;2061021;28;19932;-70
2021/07/20 04:29:03;;;;;;;;;;;;;;;23.94;62.89;99427.34;2066887;28;20031;-70
2021/07/20 04:30:04;;;;;;;;;;;;;;;23.94;62.92;99423.75;2063369;28;20599;-69
2021/07/20 04:31:06;;;;;;;;;;;;;;;23.94;62.83;99430.09;2068465;28;20421;-69
2021/07/20 04:32:06;;;;;;;;;;;;;;;23.94;62.87;99432.84;2067358;28;20407;-69
2021/07/20 04:33:08;;;;;;;;;;;;;;;23.93;62.82;99436.66;2067910;28;20360;-69
2021/07/20 04:34:12;;;;;;;;;;;;;;;23.94;62.76;99432.84;2065622;28;20484;-69
2021/07/20 04:35:14;;;;;;;;;;;;;;;23.94;62.84;99435.59;2067859;28;20187;-69
2021/07/20 04:36:15;;;;;;;;;;;;;;;23.93;62.93;99439.41;2070459;28;19920;-69
2021/07/20 04:37:16;;;;;;;;;;;;;;;23.94;62.92;99438.34;2066864;28;19927;-69
2021/07/20 04:38:17;;;;;;;;;;;;;;;23.93;62.89;99436.66;2068098;28;20398;-69
2021/07/20 04:39:17;;;;;;;;;;;;;;;23.94;62.87;99437.50;2066003;28;20031;-69
2021/07/20 04:40:18;;;;;;;;;;;;;;;23.94;62.85;99443.03;2067496;28;20783;-69
2021/07/20 04:41:19;;;;;;;;;;;;;;;23.94;62.87;99437.50;2067043;28;19921;-69
2021/07/20 04:42:20;;;;;;;;;;;;;;;23.93;62.96;99436.66;2067169;28;19917;-70
2021/07/20 04:43:20;;;;;;;;;;;;;;;23.94;62.81;99440.25;2075432;28;19931;-70
2021/07/20 04:44:21;;;;;;;;;;;;;;;23.93;62.84;99442.19;2067194;28;20007;-70
2021/07/20 04:45:22;;;;;;;;;;;;;;;23.95;62.83;99444.72;2059643;28;20395;-70
2021/07/20 04:46:23;;;;;;;;;;;;;;;23.93;62.85;99442.19;2067168;28;20446;-70
2021/07/20 04:47:23;;;;;;;;;;;;;;;23.92;62.94;99440.44;2062560;28;19983;-70
2021/07/20 04:48:24;;;;;;;;;;;;;;;23.93;62.81;99446.81;2068034;28;19963;-70
2021/07/20 04:49:24;;;;;;;;;;;;;;;23.93;62.79;99450.44;2067596;28;19928;-70
2021/07/20 04:50:27;;;;;;;;;;;;;;;23.93;62.96;99447.69;2063149;28;19928;-70
2021/07/20 04:51:28;;;;;;;;;;;;;;;23.94;62.82;99451.28;2068312;28;19917;-70
2021/07/20 04:52:29;;;;;;;;;;;;;;;23.94;62.94;99449.38;2068815;28;20907;-69
2021/07/20 04:53:30;;;;;;;;;;;;;;;23.93;62.78;99455.94;2069156;28;20168;-70
2021/07/20 04:54:30;;;;;;;;;;;;;;;23.93;62.93;99453.19;2066512;28;19963;-69
2021/07/20 04:55:31;;;;;;;;;;;;;;;23.93;62.78;99447.69;2070594;28;20927;-69
2021/07/20 04:56:32;;;;;;;;;;;;;;;23.93;63.00;99453.19;2064950;28;19921;-69
2021/07/20 04:57:32;;;;;;;;;;;;;;;23.94;62.97;99448.53;2067552;28;19920;-69
2021/07/20 04:58:33;;;;;;;;;;;;;;;23.92;62.93;99454.22;2064888;28;19917;-69
2021/07/20 04:59:33;;;;;;;;;;;;;;;23.93;62.93;99458.69;2064669;28;19913;-69
2021/07/20 05:00:35;;;;;;;;;;;;;;;23.93;62.92;99453.19;2067057;28;20400;-69
2021/07/20 05:01:36;;;;;;;;;;;;;;;23.93;62.86;99455.06;2066196;28;19921;-69
2021/07/20 05:02:38;;;;;;;;;;;;;;;23.92;62.90;99459.72;2068891;28;19952;-69
2021/07/20 05:03:40;;;;;;;;;;;;;;;23.92;62.93;99454.22;2064071;28;19921;-69
2021/07/20 05:04:41;;;;;;;;;;;;;;;23.93;62.78;99457.81;2066465;28;19983;-69
2021/07/20 05:05:42;;;;;;;;;;;;;;;23.91;63.04;99455.28;2068252;28;20712;-69
2021/07/20 05:06:45;;;;;;;;;;;;;;;23.93;62.98;99458.69;2067585;28;20142;-70
2021/07/20 05:07:46;;;;;;;;;;;;;;;23.92;62.96;99462.47;2068013;28;19932;-70
2021/07/20 05:08:46;;;;;;;;;;;;;;;23.92;63.01;99456.97;2069397;28;20693;-71
2021/07/20 05:09:47;;;;;;;;;;;;;;;23.91;62.99;99452.53;2068851;28;19921;-70
2021/07/20 05:10:48;;;;;;;;;;;;;;;23.92;62.92;99458.88;2069794;28;19928;-70
2021/07/20 05:11:49;;;;;;;;;;;;;;;23.92;62.97;99456.13;2068638;28;19921;-70
2021/07/20 05:12:50;;;;;;;;;;;;;;;23.92;63.01;99451.47;2069815;28;19917;-70
2021/07/20 05:13:51;;;;;;;;;;;;;;;23.92;63.19;99465.22;2068868;28;19968;-70
2021/07/20 05:14:51;;;;;;;;;;;;;;;23.92;62.93;99456.97;2069646;28;19917;-71
2021/07/20 05:15:53;;;;;;;;;;;;;;;23.91;63.07;99452.53;2064932;28;19968;-71
2021/07/20 05:16:53;;;;;;;;;;;;;;;23.91;62.97;99455.28;2064503;28;20130;-71
2021/07/20 05:17:54;;;;;;;;;;;;;;;23.91;63.17;99455.28;2068035;28;19913;-71
2021/07/20 05:18:54;;;;;;;;;;;;;;;23.92;62.93;99451.47;2068590;28;20581;-70
2021/07/20 05:19:55;;;;;;;;;;;;;;;23.91;62.96;99455.28;2067490;28;19978;-70
2021/07/20 05:20:57;;;;;;;;;;;;;;;23.91;62.95;99449.78;2068509;28;19921;-70
2021/07/20 05:21:58;;;;;;;;;;;;;;;23.91;62.97;99449.78;2073806;28;19936;-70
2021/07/20 05:22:59;;;;;;;;;;;;;;;23.91;62.90;99458.03;2068981;28;19921;-70
2021/07/20 05:24:00;;;;;;;;;;;;;;;23.92;62.96;99453.38;2069141;28;20767;-69
2021/07/20 05:25:04;;;;;;;;;;;;;;;23.92;62.91;99461.63;2068418;28;20371;-70